createdAt,value
2019-05-16T00:00:43.211Z,150873.44
2019-05-16T00:03:12.874Z,150816.13
2019-05-16T00:05:53.261Z,150811.05
2019-05-16T00:08:15.139Z,150797.08
2019-05-16T00:10:45.454Z,150763.98
2019-05-16T00:13:15.097Z,150765.28
2019-05-16T00:15:44.838Z,150807.23
2019-05-16T00:18:14.559Z,150758.91
2019-05-16T00:20:45.868Z,150775.44
2019-05-16T00:23:15.533Z,150789.44
2019-05-16T00:25:45.195Z,150772.92
2019-05-16T00:28:14.845Z,150781.81
2019-05-16T00:30:44.539Z,150778.00
2019-05-16T00:33:14.265Z,150767.80
2019-05-16T00:35:43.963Z,150771.61
2019-05-16T00:38:13.683Z,150718.22
2019-05-16T00:40:43.411Z,150790.70
2019-05-16T00:43:13.060Z,150845.47
2019-05-16T00:45:42.722Z,150831.41
2019-05-16T00:48:12.446Z,150798.34
2019-05-16T00:50:42.101Z,150811.05
2019-05-16T00:53:11.764Z,150809.80
2019-05-16T00:55:43.006Z,150811.05
2019-05-16T00:58:13.593Z,150752.58
2019-05-16T01:00:50.586Z,150732.23
2019-05-16T01:03:21.953Z,150794.52
2019-05-16T01:05:51.603Z,150729.67
2019-05-16T01:08:21.338Z,150733.50
2019-05-16T01:10:51.502Z,150733.50
2019-05-16T01:13:21.320Z,150719.47
2019-05-16T01:15:50.983Z,150765.28
2019-05-16T01:18:20.626Z,150737.31
2019-05-16T01:20:50.296Z,150727.11
2019-05-16T01:23:19.953Z,150709.33
2019-05-16T01:25:49.611Z,150729.67
2019-05-16T01:28:20.285Z,150677.53
2019-05-16T01:30:49.979Z,150678.80
2019-05-16T01:33:19.698Z,150729.67
2019-05-16T01:35:49.691Z,150746.19
2019-05-16T01:38:19.364Z,150791.97
2019-05-16T01:40:49.361Z,150724.59
2019-05-16T01:43:19.142Z,150685.17
2019-05-16T01:45:48.993Z,150772.92
2019-05-16T01:48:19.347Z,150775.44
2019-05-16T01:50:49.208Z,150805.97
2019-05-16T01:53:18.862Z,150790.70
2019-05-16T01:55:48.998Z,150755.09
2019-05-16T01:58:20.479Z,150766.55
2019-05-16T02:01:02.018Z,150755.09
2019-05-16T02:03:22.183Z,150762.72
2019-05-16T02:05:51.833Z,150711.84
2019-05-16T02:08:21.554Z,150784.33
2019-05-16T02:10:51.284Z,150770.36
2019-05-16T02:13:23.237Z,150762.72
2019-05-16T02:15:52.339Z,150779.25
2019-05-16T02:18:22.015Z,150711.84
2019-05-16T02:20:51.669Z,150661.02
2019-05-16T02:23:21.334Z,150760.16
2019-05-16T02:25:50.990Z,150686.44
2019-05-16T02:28:23.681Z,150644.50
2019-05-16T02:30:52.109Z,150625.42
2019-05-16T02:33:21.862Z,150704.27
2019-05-16T02:35:55.377Z,150655.94
2019-05-16T02:38:22.884Z,150657.20
2019-05-16T02:40:55.162Z,150655.94
2019-05-16T02:43:26.397Z,150669.91
2019-05-16T02:45:55.459Z,150626.67
2019-05-16T02:48:25.127Z,150653.39
2019-05-16T02:50:54.815Z,150620.34
2019-05-16T02:53:24.470Z,150624.16
2019-05-16T02:55:54.141Z,150627.97
2019-05-16T02:58:25.561Z,150579.67
2019-05-16T03:00:55.214Z,150616.53
2019-05-16T03:03:24.941Z,150579.67
2019-05-16T03:05:56.217Z,150580.94
2019-05-16T03:08:27.480Z,150549.16
2019-05-16T03:11:00.771Z,150559.34
2019-05-16T03:13:33.353Z,150540.27
2019-05-16T03:16:04.889Z,150537.70
2019-05-16T03:18:36.832Z,150514.87
2019-05-16T03:21:11.208Z,150598.70
2019-05-16T03:23:41.964Z,150648.31
2019-05-16T03:26:13.521Z,150683.92
2019-05-16T03:28:43.180Z,150681.36
2019-05-16T03:31:14.737Z,150701.70
2019-05-16T03:33:56.244Z,150695.31
2019-05-16T03:36:16.226Z,150638.13
2019-05-16T03:38:50.567Z,150620.34
2019-05-16T03:41:21.611Z,150643.19
2019-05-16T03:43:50.969Z,150620.34
2019-05-16T03:46:21.700Z,150575.86
2019-05-16T03:48:52.108Z,150559.34
2019-05-16T03:51:22.094Z,150531.38
2019-05-16T03:53:51.863Z,150549.16
2019-05-16T03:56:22.163Z,150570.73
2019-05-16T03:58:51.867Z,150579.67
2019-05-16T04:01:21.595Z,150517.38
2019-05-16T04:03:51.662Z,150559.34
2019-05-16T04:06:22.946Z,150513.56
2019-05-16T04:08:52.693Z,150493.23
2019-05-16T04:11:23.537Z,150527.56
2019-05-16T04:13:53.391Z,150532.64
2019-05-16T04:16:23.056Z,150503.42
2019-05-16T04:18:52.725Z,150610.16
2019-05-16T04:21:22.384Z,150589.81
2019-05-16T04:23:52.044Z,150600.02
2019-05-16T04:26:22.076Z,150617.78
2019-05-16T04:28:51.940Z,150633.05
2019-05-16T04:31:22.267Z,150633.05
2019-05-16T04:33:52.178Z,150579.67
2019-05-16T04:36:21.795Z,150601.27
2019-05-16T04:38:51.679Z,150695.31
2019-05-16T04:41:21.640Z,150709.33
2019-05-16T04:43:51.475Z,150751.27
2019-05-16T04:46:21.687Z,150767.80
2019-05-16T04:48:51.461Z,150826.31
2019-05-16T04:51:21.981Z,150750.02
2019-05-16T04:53:52.039Z,150765.28
2019-05-16T04:56:22.015Z,150800.91
2019-05-16T04:58:51.891Z,150791.97
2019-05-16T05:01:21.851Z,150755.09
2019-05-16T05:04:06.158Z,150752.58
2019-05-16T05:06:23.012Z,150762.72
2019-05-16T05:08:58.347Z,150711.84
2019-05-16T05:11:24.144Z,150791.97
2019-05-16T05:13:56.565Z,150742.37
2019-05-16T05:16:26.227Z,150676.28
2019-05-16T05:18:57.125Z,150739.81
2019-05-16T05:21:26.730Z,150742.37
2019-05-16T05:23:56.392Z,150711.84
2019-05-16T05:26:26.046Z,150699.13
2019-05-16T05:28:56.004Z,150729.67
2019-05-16T05:31:26.022Z,150780.56
2019-05-16T05:33:55.812Z,150802.16
2019-05-16T05:36:25.489Z,150760.16
2019-05-16T05:39:07.941Z,150812.31
2019-05-16T05:41:30.183Z,150818.69
2019-05-16T05:43:59.877Z,150797.08
2019-05-16T05:46:31.657Z,150855.61
2019-05-16T05:49:00.709Z,150872.14
2019-05-16T05:51:30.375Z,150928.13
2019-05-16T05:54:00.249Z,150982.86
2019-05-16T05:56:30.622Z,151023.56
2019-05-16T05:59:02.246Z,150965.02
2019-05-16T06:01:35.288Z,150994.31
2019-05-16T06:04:04.937Z,150915.41
2019-05-16T06:06:34.596Z,150991.75
2019-05-16T06:09:14.317Z,151078.27
2019-05-16T06:11:40.662Z,151106.27
2019-05-16T06:14:10.328Z,151147.00
2019-05-16T06:16:40.308Z,151145.75
2019-05-16T06:19:10.952Z,151124.13
2019-05-16T06:21:44.719Z,151010.84
2019-05-16T06:24:12.313Z,151096.11
2019-05-16T06:26:41.963Z,150994.31
2019-05-16T06:29:12.866Z,151037.55
2019-05-16T06:31:43.709Z,151024.83
2019-05-16T06:34:15.261Z,151026.09
2019-05-16T06:36:44.765Z,150912.84
2019-05-16T06:39:14.459Z,150935.77
2019-05-16T06:41:44.897Z,151017.19
2019-05-16T06:44:14.624Z,150965.02
2019-05-16T06:47:00.581Z,150900.12
2019-05-16T06:49:15.884Z,150961.19
2019-05-16T06:51:45.536Z,150930.69
2019-05-16T06:54:15.244Z,150953.55
2019-05-16T06:56:44.911Z,151026.09
2019-05-16T06:59:16.070Z,151031.22
2019-05-16T07:01:46.846Z,151063.03
2019-05-16T07:04:16.469Z,150940.84
2019-05-16T07:06:57.914Z,150930.69
2019-05-16T07:09:17.554Z,150882.34
2019-05-16T07:11:47.203Z,150851.80
2019-05-16T07:14:16.867Z,150916.66
2019-05-16T07:16:46.531Z,150910.34
2019-05-16T07:19:16.190Z,150944.66
2019-05-16T07:21:47.356Z,150968.83
2019-05-16T07:24:17.142Z,151019.75
2019-05-16T07:26:46.791Z,151017.19
2019-05-16T07:29:16.453Z,151022.27
2019-05-16T07:31:46.172Z,151047.75
2019-05-16T07:34:17.378Z,151113.91
2019-05-16T07:36:47.030Z,151060.47
2019-05-16T07:39:16.698Z,151035.03
2019-05-16T07:41:46.345Z,151250.20
2019-05-16T07:44:17.621Z,151394.14
2019-05-16T07:46:51.599Z,151411.95
2019-05-16T07:49:20.298Z,151399.22
2019-05-16T07:51:50.009Z,151327.88
2019-05-16T07:54:21.426Z,151268.00
2019-05-16T07:56:58.514Z,151294.77
2019-05-16T07:59:22.385Z,151324.05
2019-05-16T08:01:54.164Z,151431.08
2019-05-16T08:04:23.483Z,151226.00
2019-05-16T08:06:53.215Z,151246.38
2019-05-16T08:09:22.936Z,151284.56
2019-05-16T08:11:52.602Z,151350.81
2019-05-16T08:14:22.287Z,151401.73
2019-05-16T08:16:51.950Z,151501.13
2019-05-16T08:19:25.203Z,151459.11
2019-05-16T08:21:53.025Z,151399.22
2019-05-16T08:24:22.681Z,151403.03
2019-05-16T08:26:52.512Z,151391.58
2019-05-16T08:29:22.245Z,151329.13
2019-05-16T08:33:20.828Z,151371.19
2019-05-16T08:34:23.309Z,151443.81
2019-05-16T08:36:52.973Z,151513.92
2019-05-16T08:39:22.713Z,151550.88
2019-05-16T08:41:52.360Z,151434.91
2019-05-16T08:44:22.102Z,151470.53
2019-05-16T08:46:57.070Z,151483.31
2019-05-16T08:49:24.484Z,151508.83
2019-05-16T08:51:54.205Z,151629.91
2019-05-16T08:54:23.880Z,151432.33
2019-05-16T08:56:53.576Z,151471.84
2019-05-16T08:59:23.336Z,151464.19
2019-05-16T09:01:57.959Z,151348.25
2019-05-16T09:04:25.278Z,151490.97
2019-05-16T09:06:55.062Z,151629.91
2019-05-16T09:09:41.048Z,151686.02
2019-05-16T09:11:58.410Z,151621.00
2019-05-16T09:14:33.960Z,151651.56
2019-05-16T09:16:59.469Z,151763.78
2019-05-16T09:19:29.122Z,151652.88
2019-05-16T09:21:58.805Z,151688.53
2019-05-16T09:24:28.465Z,151617.17
2019-05-16T09:26:58.140Z,151615.86
2019-05-16T09:29:27.805Z,151544.53
2019-05-16T09:32:11.517Z,151576.39
2019-05-16T09:34:28.927Z,151683.44
2019-05-16T09:37:01.045Z,151740.81
2019-05-16T09:39:30.076Z,151666.88
2019-05-16T09:41:59.725Z,151714.06
2019-05-16T09:44:29.390Z,151657.97
2019-05-16T09:46:59.059Z,151627.34
2019-05-16T09:49:29.345Z,151600.61
2019-05-16T09:51:59.066Z,151771.44
2019-05-16T09:54:28.720Z,151615.86
2019-05-16T09:56:58.374Z,151612.08
2019-05-16T09:59:30.985Z,151562.34
2019-05-16T10:02:00.650Z,151633.73
2019-05-16T10:04:30.304Z,151691.09
2019-05-16T10:06:59.953Z,151559.83
2019-05-16T10:09:41.294Z,151682.19
2019-05-16T10:12:11.881Z,151674.53
2019-05-16T10:14:32.383Z,151624.83
2019-05-16T10:17:02.073Z,151686.02
2019-05-16T10:19:31.734Z,151789.25
2019-05-16T10:22:01.455Z,151794.44
2019-05-16T10:24:31.118Z,151729.38
2019-05-16T10:27:00.772Z,151830.13
2019-05-16T10:29:30.501Z,151923.22
2019-05-16T10:32:00.214Z,151873.50
2019-05-16T10:34:29.944Z,151887.55
2019-05-16T10:36:59.616Z,151823.77
2019-05-16T10:39:29.277Z,151802.09
2019-05-16T10:41:58.999Z,151757.38
2019-05-16T10:44:28.747Z,151683.44
2019-05-16T10:46:59.921Z,151786.75
2019-05-16T10:49:36.905Z,151771.44
2019-05-16T10:52:00.962Z,151906.66
2019-05-16T10:54:30.703Z,151870.97
2019-05-16T10:57:00.489Z,151932.19
2019-05-16T11:02:02.005Z,151920.70
2019-05-16T11:04:49.907Z,151906.66
2019-05-16T11:07:03.101Z,151882.41
2019-05-16T11:09:32.795Z,151812.28
2019-05-16T11:12:02.452Z,151905.39
2019-05-16T11:14:32.119Z,151966.63
2019-05-16T11:17:01.851Z,151992.13
2019-05-16T11:19:31.499Z,152036.83
2019-05-16T11:22:01.169Z,152072.56
2019-05-16T11:24:30.839Z,152195.13
2019-05-16T11:27:00.477Z,152195.13
2019-05-16T11:29:30.201Z,152154.28
2019-05-16T11:31:59.903Z,152110.88
2019-05-16T11:34:29.524Z,152126.20
2019-05-16T11:36:59.247Z,152105.78
2019-05-16T11:39:28.930Z,152002.34
2019-05-16T11:41:58.652Z,152101.95
2019-05-16T11:44:29.293Z,152177.23
2019-05-16T11:46:59.015Z,152144.06
2019-05-16T11:49:28.737Z,152057.25
2019-05-16T11:51:58.392Z,152246.17
2019-05-16T11:54:28.052Z,152307.45
2019-05-16T11:56:57.706Z,152235.98
2019-05-16T11:59:27.379Z,152373.94
2019-05-16T12:01:57.018Z,152357.34
2019-05-16T12:04:28.079Z,152453.11
2019-05-16T12:06:57.913Z,152322.84
2019-05-16T12:09:33.915Z,152395.64
2019-05-16T12:12:03.821Z,152514.47
2019-05-16T12:14:30.386Z,152655.05
2019-05-16T12:17:00.039Z,152772.66
2019-05-16T12:19:34.760Z,152873.72
2019-05-16T12:22:01.211Z,152695.95
2019-05-16T12:24:37.142Z,152678.08
2019-05-16T12:27:02.343Z,152967.08
2019-05-16T12:29:32.009Z,153174.39
2019-05-16T12:32:02.937Z,153151.39
2019-05-16T12:34:32.922Z,152800.83
2019-05-16T12:37:02.606Z,152880.13
2019-05-16T12:39:32.329Z,152959.41
2019-05-16T12:42:03.489Z,153132.19
2019-05-16T12:44:34.178Z,152901.86
2019-05-16T12:47:03.945Z,152967.08
2019-05-16T12:49:33.599Z,153143.70
2019-05-16T12:52:03.278Z,153114.23
2019-05-16T12:54:32.936Z,153241.02
2019-05-16T12:57:02.603Z,153192.33
2019-05-16T12:59:32.615Z,153144.97
2019-05-16T13:02:02.263Z,153165.44
2019-05-16T13:04:31.930Z,153426.66
2019-05-16T13:07:02.764Z,153732.89
2019-05-16T13:09:32.434Z,153517.63
2019-05-16T13:12:02.095Z,153699.59
2019-05-16T13:14:31.748Z,154104.75
2019-05-16T13:17:01.412Z,154667.03
2019-05-16T13:19:32.813Z,155356.03
2019-05-16T13:22:02.443Z,155744.69
2019-05-16T13:24:32.128Z,156024.09
2019-05-16T13:27:03.349Z,155429.30
2019-05-16T13:29:32.991Z,154863.63
2019-05-16T13:32:02.731Z,154995.97
2019-05-16T13:34:32.411Z,154882.84
2019-05-16T13:37:02.060Z,153953.39
2019-05-16T13:39:31.715Z,154938.13
2019-05-16T13:42:01.382Z,154222.80
2019-05-16T13:44:31.026Z,154577.09
2019-05-16T13:47:02.226Z,154014.98
2019-05-16T13:49:31.882Z,153606.02
2019-05-16T13:52:01.571Z,153185.91
2019-05-16T13:54:31.223Z,153299.88
2019-05-16T13:57:00.898Z,153102.75
2019-05-16T13:59:30.548Z,153409.97
2019-05-16T14:02:00.226Z,153326.78
2019-05-16T14:04:29.949Z,153128.34
2019-05-16T14:06:59.648Z,153153.91
2019-05-16T14:09:29.310Z,153333.16
2019-05-16T14:11:59.039Z,153357.47
2019-05-16T14:14:37.191Z,153169.28
2019-05-16T14:17:00.081Z,152956.88
2019-05-16T14:19:29.746Z,153055.41
2019-05-16T14:21:59.429Z,152716.39
2019-05-16T14:24:29.107Z,152764.97
2019-05-16T14:26:58.768Z,152687.02
2019-05-16T14:29:28.440Z,152648.69
2019-05-16T14:31:58.101Z,152331.77
2019-05-16T14:34:27.974Z,152164.47
2019-05-16T14:36:58.016Z,152113.41
2019-05-16T14:39:28.534Z,152100.64
2019-05-16T14:41:58.403Z,151990.86
2019-05-16T14:44:28.824Z,151943.69
2019-05-16T14:46:58.506Z,151950.03
2019-05-16T14:49:29.002Z,151868.41
2019-05-16T14:51:58.910Z,151887.55
2019-05-16T14:54:29.956Z,151920.70
2019-05-16T14:57:00.938Z,152025.33
2019-05-16T14:59:31.386Z,152082.80
2019-05-16T15:02:01.052Z,152018.94
2019-05-16T15:04:30.713Z,152053.41
2019-05-16T15:07:00.386Z,151970.44
2019-05-16T15:09:30.044Z,151960.27
2019-05-16T15:11:59.733Z,151961.53
2019-05-16T15:14:29.435Z,152080.22
2019-05-16T15:16:59.100Z,152142.80
2019-05-16T15:19:28.751Z,152190.00
2019-05-16T15:22:02.411Z,152076.41
2019-05-16T15:24:31.467Z,152081.53
2019-05-16T15:27:02.162Z,152049.58
2019-05-16T15:29:34.602Z,152044.44
2019-05-16T15:32:06.811Z,151973.02
2019-05-16T15:34:38.118Z,151845.44
2019-05-16T15:37:07.957Z,151897.72
2019-05-16T15:39:37.975Z,151881.16
2019-05-16T15:42:08.321Z,151913.05
2019-05-16T15:44:38.136Z,151833.94
2019-05-16T15:47:08.312Z,151754.86
2019-05-16T15:49:38.022Z,151910.47
2019-05-16T15:52:07.923Z,151970.44
2019-05-16T15:54:39.577Z,151789.25
2019-05-16T15:57:09.222Z,151725.53
2019-05-16T15:59:40.138Z,151756.13
2019-05-16T16:02:09.826Z,151605.69
2019-05-16T16:04:39.552Z,151592.95
2019-05-16T16:07:09.222Z,151610.78
2019-05-16T16:09:39.971Z,151499.88
2019-05-16T16:12:10.798Z,151640.09
2019-05-16T16:14:40.712Z,151698.75
2019-05-16T16:17:10.751Z,151661.78
2019-05-16T16:19:40.471Z,151693.66
2019-05-16T16:22:10.211Z,151623.52
2019-05-16T16:24:41.119Z,151513.92
2019-05-16T16:27:11.311Z,151465.44
2019-05-16T16:29:42.731Z,151479.48
2019-05-16T16:32:13.749Z,151496.05
2019-05-16T16:34:43.399Z,151526.66
2019-05-16T16:37:13.231Z,151575.08
2019-05-16T16:39:47.185Z,151501.13
2019-05-16T16:42:16.883Z,151399.22
2019-05-16T16:44:47.235Z,151474.36
2019-05-16T16:47:17.755Z,151511.41
2019-05-16T16:49:47.425Z,151530.48
2019-05-16T16:52:17.243Z,151538.13
2019-05-16T16:54:47.672Z,151553.44
2019-05-16T16:57:17.948Z,151505.00
2019-05-16T16:59:47.891Z,151330.44
2019-05-16T17:02:17.561Z,151349.56
2019-05-16T17:04:51.069Z,151343.16
2019-05-16T17:07:18.650Z,151366.11
2019-05-16T17:09:48.317Z,151378.84
2019-05-16T17:12:17.977Z,151355.89
2019-05-16T17:14:50.509Z,151297.33
2019-05-16T17:17:20.179Z,151274.39
2019-05-16T17:19:50.864Z,151294.77
2019-05-16T17:22:21.061Z,151302.41
2019-05-16T17:24:50.744Z,151236.17
2019-05-16T17:27:20.414Z,151260.36
2019-05-16T17:29:50.071Z,151245.12
2019-05-16T17:32:22.101Z,151334.25
2019-05-16T17:34:51.763Z,151310.06
2019-05-16T17:37:21.434Z,151294.77
2019-05-16T17:39:51.112Z,151307.50
2019-05-16T17:42:20.779Z,151378.84
2019-05-16T17:44:50.441Z,151409.38
2019-05-16T17:47:20.096Z,151380.09
2019-05-16T17:49:49.767Z,151382.66
2019-05-16T17:52:19.425Z,151340.59
2019-05-16T17:54:49.104Z,151251.47
2019-05-16T17:57:18.828Z,151240.00
2019-05-16T17:59:48.503Z,151149.56
2019-05-16T18:02:19.728Z,151159.77
2019-05-16T18:04:49.439Z,151262.94
2019-05-16T18:07:19.094Z,151231.09
2019-05-16T18:09:48.756Z,151302.41
2019-05-16T18:12:18.423Z,151279.47
2019-05-16T18:14:50.315Z,151252.77
2019-05-16T18:17:19.533Z,151302.41
2019-05-16T18:19:49.180Z,151280.73
2019-05-16T18:22:18.859Z,151278.22
2019-05-16T18:24:48.579Z,151268.00
2019-05-16T18:27:18.243Z,151238.73
2019-05-16T18:29:47.899Z,151205.64
2019-05-16T18:32:17.573Z,151185.22
2019-05-16T18:34:47.230Z,151052.83
2019-05-16T18:37:17.366Z,151152.13
2019-05-16T18:39:47.500Z,151231.09
2019-05-16T18:42:17.267Z,151200.56
2019-05-16T18:44:47.312Z,151161.03
2019-05-16T18:47:17.081Z,151168.67
2019-05-16T18:49:47.279Z,151173.75
2019-05-16T18:52:17.313Z,151181.41
2019-05-16T18:54:47.276Z,151127.94
2019-05-16T18:57:17.653Z,151131.77
2019-05-16T18:59:47.549Z,151141.92
2019-05-16T19:02:17.912Z,151124.13
2019-05-16T19:04:50.067Z,151029.91
2019-05-16T19:07:19.205Z,151022.27
2019-05-16T19:09:49.014Z,150976.47
2019-05-16T19:12:18.675Z,151089.72
2019-05-16T19:14:48.498Z,151082.09
2019-05-16T19:17:24.150Z,151075.75
2019-05-16T19:19:50.584Z,151059.22
2019-05-16T19:22:20.276Z,151069.38
2019-05-16T19:24:49.943Z,151013.38
2019-05-16T19:27:19.698Z,151009.55
2019-05-16T19:29:49.351Z,150956.11
2019-05-16T19:32:19.048Z,151055.39
2019-05-16T19:34:50.154Z,151057.91
2019-05-16T19:37:19.786Z,151023.56
2019-05-16T19:39:49.679Z,151004.47
2019-05-16T19:42:19.348Z,150990.50
2019-05-16T19:44:50.249Z,149465.14
2019-05-16T19:47:19.907Z,150998.08
2019-05-16T19:49:49.565Z,149355.42
2019-05-16T19:52:19.256Z,141351.95
2019-05-16T19:54:48.994Z,134140.87
2019-05-16T19:57:18.657Z,119551.92
2019-05-16T19:59:48.326Z,108302.48
2019-05-16T20:02:17.986Z,97279.33
2019-05-16T20:04:49.042Z,79442.05
2019-05-16T20:07:18.702Z,76423.44
2019-05-16T20:09:48.373Z,73593.31
2019-05-16T20:12:18.018Z,67733.87
2019-05-16T20:14:47.688Z,64838.73
2019-05-16T20:17:19.214Z,72112.66
2019-05-16T20:19:48.748Z,75390.45
2019-05-16T20:22:18.419Z,72142.77
2019-05-16T20:24:48.069Z,60133.60
2019-05-16T20:27:19.521Z,56235.12
2019-05-16T20:29:49.120Z,58653.48
2019-05-16T20:32:18.807Z,59160.22
2019-05-16T20:34:48.458Z,55706.77
2019-05-16T20:37:18.196Z,46895.32
2019-05-16T20:39:47.937Z,42339.02
2019-05-16T20:42:17.598Z,42364.86
2019-05-16T20:44:49.848Z,39930.92
2019-05-16T20:47:18.667Z,44699.10
2019-05-16T20:49:50.599Z,37733.82
2019-05-16T20:52:19.690Z,40567.53
2019-05-16T20:54:49.795Z,35731.30
2019-05-16T20:57:19.845Z,15590.62
2019-05-16T20:59:49.562Z,5327.76
2019-05-16T21:02:19.226Z,8537.23
2019-05-16T21:04:48.889Z,12078.09
2019-05-16T21:07:19.534Z,13490.06
2019-05-16T21:09:49.237Z,9468.21
2019-05-16T21:12:19.899Z,10410.78
2019-05-16T21:14:49.568Z,11580.79
2019-05-16T21:17:19.332Z,11790.70
2019-05-16T21:19:49.070Z,7608.44
2019-05-16T21:22:19.397Z,1184.36
2019-05-16T21:24:49.286Z,-647.10
2019-05-16T21:27:19.204Z,-2644.75
2019-05-16T21:29:49.054Z,-3976.82
2019-05-16T21:32:18.716Z,1186.71
2019-05-16T21:34:48.500Z,3854.99
2019-05-16T21:37:20.457Z,5713.27
2019-05-16T21:39:49.524Z,4857.15
2019-05-16T21:42:19.188Z,4857.69
2019-05-16T21:44:48.828Z,3856.34
2019-05-16T21:47:19.608Z,-6137.14
2019-05-16T21:49:49.429Z,-10620.16
2019-05-16T21:52:19.105Z,-13274.52
2019-05-16T21:54:48.943Z,-12947.49
2019-05-16T21:57:19.912Z,-12779.86
2019-05-16T21:59:49.728Z,-12946.14
2019-05-16T22:02:19.936Z,-12971.41
2019-05-16T22:04:49.643Z,-12548.25
2019-05-16T22:07:31.694Z,-9312.45
2019-05-16T22:09:50.686Z,-4943.89
2019-05-16T22:12:20.546Z,-3058.31
2019-05-16T22:14:52.417Z,-2680.70
2019-05-16T22:17:22.124Z,691.48
2019-05-16T22:19:51.793Z,2282.33
2019-05-16T22:22:21.505Z,2877.63
2019-05-16T22:24:51.163Z,7215.36
2019-05-16T22:27:20.820Z,6984.74
2019-05-16T22:29:50.749Z,4069.89
2019-05-16T22:32:21.965Z,5528.73
2019-05-16T22:34:51.623Z,6842.46
2019-05-16T22:37:22.294Z,8387.48
2019-05-16T22:39:51.944Z,9822.79
2019-05-16T22:42:21.609Z,11748.77
2019-05-16T22:44:52.288Z,14192.36
2019-05-16T22:47:22.018Z,16202.73
2019-05-16T22:49:51.675Z,14233.36
2019-05-16T22:52:21.334Z,10233.10
2019-05-16T22:54:50.990Z,9239.57
2019-05-16T22:57:20.700Z,12306.50
2019-05-16T22:59:50.356Z,14074.93
2019-05-16T23:02:20.012Z,12536.43
2019-05-16T23:04:49.765Z,12650.34
2019-05-16T23:07:21.185Z,11870.82
2019-05-16T23:09:50.830Z,9005.68
2019-05-16T23:12:20.492Z,7255.28
2019-05-16T23:14:50.154Z,7348.95
2019-05-16T23:17:19.881Z,6105.04
2019-05-16T23:19:49.547Z,6112.45
2019-05-16T23:22:19.259Z,4758.48
2019-05-16T23:24:48.967Z,3510.45
2019-05-16T23:27:18.633Z,2150.57
2019-05-16T23:29:49.309Z,1280.13
2019-05-16T23:32:19.026Z,735.34
2019-05-16T23:34:48.689Z,-337.46
2019-05-16T23:37:18.339Z,-1485.37
2019-05-16T23:39:48.001Z,-741.14
2019-05-16T23:42:17.654Z,-946.72
2019-05-16T23:44:47.486Z,-1663.50
2019-05-16T23:47:17.137Z,-853.08
2019-05-16T23:49:47.346Z,-971.46
2019-05-16T23:52:18.733Z,-1307.16
2019-05-16T23:54:51.172Z,-1791.00
2019-05-16T23:57:19.778Z,-1508.80
2019-05-16T23:59:49.505Z,-1980.88
